EZY4921 LFPO-LICJ
Flight info
| Callsign | EZY4921 |
|---|---|
| Flight time | 1h 53m |
| Altitude | 33000 |
| Route | PILUL DCT ARDOL DCT MOKIP DCT MILPA DCT LURAG/N0401F190 M135 TOP L50 ELB L12 GIANO |
| Aircraft | A320/M-SDE3FGHIRWY/LB1 |
Departure
| Time | 2026-04-30 11:58 |
|---|---|
| Airport | Paris-Orly Airport (LFPO) |
Arrival
| Time | 2026-04-30 13:51 |
|---|---|
| Airport | Falcone–Borsellino Airport (LICJ) |
| Time | Latitude | Longitude | Altitude | Speed | Heading |
|---|---|---|---|---|---|
| 2026-04-30 11:32 | 48.72692 | 2.36592 | 288 ft | 0 kts | 4° |
| 2026-04-30 11:49 | 48.72688 | 2.36591 | 292 ft | 3 kts | 4° |
| 2026-04-30 11:49 | 48.72661 | 2.36588 | 290 ft | 4 kts | 4° |
| 2026-04-30 11:49 | 48.72636 | 2.36585 | 290 ft | 2 kts | 4° |
| 2026-04-30 11:50 | 48.72613 | 2.36584 | 289 ft | 4 kts | 353° |
| 2026-04-30 11:50 | 48.72588 | 2.36592 | 292 ft | 4 kts | 327° |
| 2026-04-30 11:50 | 48.72579 | 2.36618 | 292 ft | 4 kts | 255° |
| 2026-04-30 11:50 | 48.72587 | 2.36649 | 291 ft | 1 kts | 247° |
| 2026-04-30 11:51 | 48.72587 | 2.36650 | 291 ft | 0 kts | 247° |
| 2026-04-30 11:53 | 48.72582 | 2.36630 | 292 ft | 4 kts | 249° |
| 2026-04-30 11:53 | 48.72548 | 2.36603 | 288 ft | 7 kts | 177° |
| 2026-04-30 11:53 | 48.72496 | 2.36593 | 287 ft | 9 kts | 223° |
| 2026-04-30 11:54 | 48.72473 | 2.36501 | 290 ft | 10 kts | 255° |
| 2026-04-30 11:54 | 48.72455 | 2.36399 | 288 ft | 10 kts | 255° |
| 2026-04-30 11:54 | 48.72438 | 2.36301 | 289 ft | 10 kts | 252° |
| 2026-04-30 11:54 | 48.72415 | 2.36192 | 289 ft | 12 kts | 256° |
| 2026-04-30 11:55 | 48.72392 | 2.36067 | 286 ft | 12 kts | 254° |
| 2026-04-30 11:55 | 48.72371 | 2.35949 | 287 ft | 12 kts | 254° |
| 2026-04-30 11:55 | 48.72338 | 2.35772 | 287 ft | 16 kts | 254° |
| 2026-04-30 11:55 | 48.72303 | 2.35623 | 287 ft | 16 kts | 228° |
| 2026-04-30 11:56 | 48.72195 | 2.35609 | 287 ft | 17 kts | 163° |
| 2026-04-30 11:56 | 48.72082 | 2.35663 | 289 ft | 10 kts | 150° |
| 2026-04-30 11:56 | 48.72035 | 2.35732 | 285 ft | 11 kts | 123° |
| 2026-04-30 11:56 | 48.72029 | 2.35749 | 286 ft | 0 kts | 117° |
| 2026-04-30 11:57 | 48.72027 | 2.35753 | 288 ft | 3 kts | 116° |
| 2026-04-30 11:57 | 48.71990 | 2.35858 | 289 ft | 13 kts | 122° |
| 2026-04-30 11:57 | 48.71957 | 2.35950 | 286 ft | 8 kts | 81° |
| 2026-04-30 11:57 | 48.71966 | 2.35992 | 286 ft | 2 kts | 73° |
| 2026-04-30 11:58 | 48.72010 | 2.36233 | 289 ft | 61 kts | 75° |
| 2026-04-30 11:58 | 48.72186 | 2.37199 | 284 ft | 125 kts | 75° |
| 2026-04-30 11:58 | 48.72452 | 2.38647 | 595 ft | 148 kts | 75° |
| 2026-04-30 11:58 | 48.72739 | 2.40190 | 1155 ft | 157 kts | 75° |
| 2026-04-30 11:59 | 48.73044 | 2.41817 | 1774 ft | 165 kts | 75° |
| 2026-04-30 11:59 | 48.73364 | 2.43600 | 2270 ft | 185 kts | 77° |
| 2026-04-30 11:59 | 48.73697 | 2.45623 | 2570 ft | 215 kts | 77° |
| 2026-04-30 11:59 | 48.74064 | 2.47959 | 3066 ft | 236 kts | 84° |
| 2026-04-30 12:00 | 48.74192 | 2.50497 | 3824 ft | 247 kts | 91° |
| 2026-04-30 12:00 | 48.74236 | 2.53125 | 4692 ft | 252 kts | 90° |
| 2026-04-30 12:00 | 48.74272 | 2.55794 | 5579 ft | 255 kts | 97° |
| 2026-04-30 12:00 | 48.73631 | 2.58262 | 6385 ft | 257 kts | 131° |
| 2026-04-30 12:01 | 48.72156 | 2.59795 | 7231 ft | 262 kts | 156° |
| 2026-04-30 12:01 | 48.70406 | 2.60626 | 8100 ft | 266 kts | 164° |
| 2026-04-30 12:01 | 48.68583 | 2.61251 | 8955 ft | 270 kts | 165° |
| 2026-04-30 12:01 | 48.66735 | 2.61880 | 9775 ft | 275 kts | 164° |
| 2026-04-30 12:02 | 48.64801 | 2.62139 | 10506 ft | 284 kts | 180° |
| 2026-04-30 12:02 | 48.62836 | 2.61579 | 11300 ft | 292 kts | 194° |
| 2026-04-30 12:02 | 48.60948 | 2.60297 | 11894 ft | 308 kts | 205° |
| 2026-04-30 12:02 | 48.58965 | 2.58783 | 12142 ft | 331 kts | 204° |
| 2026-04-30 12:03 | 48.56839 | 2.57156 | 12318 ft | 354 kts | 205° |
| 2026-04-30 12:03 | 48.52091 | 2.54731 | 13154 ft | 370 kts | 179° |
| 2026-04-30 12:03 | 48.49550 | 2.55216 | 13793 ft | 370 kts | 160° |
| 2026-04-30 12:04 | 48.47232 | 2.56984 | 14420 ft | 370 kts | 142° |
| 2026-04-30 12:04 | 48.45246 | 2.59383 | 15019 ft | 373 kts | 140° |
| 2026-04-30 12:04 | 48.43204 | 2.61914 | 15619 ft | 377 kts | 139° |
| 2026-04-30 12:04 | 48.41202 | 2.64412 | 16211 ft | 379 kts | 139° |
| 2026-04-30 12:05 | 48.39169 | 2.66954 | 16864 ft | 380 kts | 139° |
| 2026-04-30 12:05 | 48.37122 | 2.69507 | 17455 ft | 384 kts | 139° |
| 2026-04-30 12:05 | 48.35054 | 2.72077 | 18024 ft | 387 kts | 139° |
| 2026-04-30 12:05 | 48.32961 | 2.74665 | 18553 ft | 391 kts | 140° |
| 2026-04-30 12:06 | 48.30849 | 2.77266 | 19064 ft | 394 kts | 140° |
| 2026-04-30 12:06 | 48.28719 | 2.79882 | 19532 ft | 397 kts | 140° |
| 2026-04-30 12:06 | 48.26572 | 2.82514 | 20021 ft | 399 kts | 139° |
| 2026-04-30 12:06 | 48.24414 | 2.85156 | 20538 ft | 401 kts | 139° |
| 2026-04-30 12:07 | 48.22247 | 2.87811 | 21049 ft | 403 kts | 139° |
| 2026-04-30 12:07 | 48.20071 | 2.90482 | 21557 ft | 405 kts | 139° |
| 2026-04-30 12:07 | 48.17886 | 2.93159 | 22043 ft | 407 kts | 139° |
| 2026-04-30 12:07 | 48.15687 | 2.95845 | 22531 ft | 409 kts | 139° |
| 2026-04-30 12:08 | 48.13481 | 2.98533 | 23001 ft | 410 kts | 139° |
| 2026-04-30 12:08 | 48.11258 | 3.01239 | 23418 ft | 414 kts | 138° |
| 2026-04-30 12:08 | 48.09013 | 3.03970 | 23815 ft | 416 kts | 138° |
| 2026-04-30 12:08 | 48.06761 | 3.06713 | 24184 ft | 419 kts | 138° |
| 2026-04-30 12:09 | 48.05242 | 3.08576 | 24429 ft | 420 kts | 138° |
| 2026-04-30 12:09 | 48.04532 | 3.09447 | 24536 ft | 421 kts | 138° |
| 2026-04-30 12:10 | 48.02288 | 3.12210 | 24893 ft | 423 kts | 138° |
| 2026-04-30 12:10 | 47.99983 | 3.15057 | 25245 ft | 426 kts | 138° |
| 2026-04-30 12:10 | 47.97725 | 3.17844 | 25586 ft | 428 kts | 138° |
| 2026-04-30 12:10 | 47.95425 | 3.20680 | 25917 ft | 430 kts | 139° |
| 2026-04-30 12:11 | 47.93110 | 3.23525 | 26235 ft | 433 kts | 139° |
| 2026-04-30 12:11 | 47.90780 | 3.26383 | 26542 ft | 435 kts | 139° |
| 2026-04-30 12:11 | 47.88432 | 3.29252 | 26855 ft | 437 kts | 139° |
| 2026-04-30 12:11 | 47.86074 | 3.32126 | 27171 ft | 439 kts | 139° |
| 2026-04-30 12:12 | 47.83701 | 3.35015 | 27471 ft | 441 kts | 139° |
| 2026-04-30 12:12 | 47.81328 | 3.37904 | 27887 ft | 441 kts | 139° |
| 2026-04-30 12:12 | 47.78951 | 3.40791 | 28296 ft | 441 kts | 139° |
| 2026-04-30 12:12 | 47.76577 | 3.43670 | 28728 ft | 440 kts | 139° |
| 2026-04-30 12:13 | 47.74207 | 3.46546 | 29170 ft | 439 kts | 139° |
| 2026-04-30 12:13 | 47.71831 | 3.49432 | 29583 ft | 439 kts | 139° |
| 2026-04-30 12:13 | 47.69467 | 3.52298 | 30018 ft | 438 kts | 139° |
| 2026-04-30 12:13 | 47.67103 | 3.55154 | 30411 ft | 438 kts | 139° |
| 2026-04-30 12:14 | 47.64741 | 3.58005 | 30780 ft | 437 kts | 139° |
| 2026-04-30 12:14 | 47.62382 | 3.60849 | 31147 ft | 436 kts | 140° |
| 2026-04-30 12:14 | 47.60027 | 3.63684 | 31512 ft | 436 kts | 140° |
| 2026-04-30 12:14 | 47.57681 | 3.66508 | 31874 ft | 435 kts | 139° |
| 2026-04-30 12:15 | 47.55327 | 3.69339 | 32231 ft | 435 kts | 140° |
| 2026-04-30 12:15 | 47.52980 | 3.72155 | 32615 ft | 434 kts | 140° |
| 2026-04-30 12:15 | 47.50627 | 3.74974 | 32892 ft | 436 kts | 140° |
| 2026-04-30 12:15 | 47.48267 | 3.77798 | 33090 ft | 437 kts | 140° |
| 2026-04-30 12:16 | 47.45892 | 3.80642 | 33139 ft | 441 kts | 140° |
| 2026-04-30 12:16 | 47.41148 | 3.86310 | 33127 ft | 442 kts | 140° |
| 2026-04-30 12:17 | 47.33967 | 3.94856 | 33123 ft | 442 kts | 140° |
| 2026-04-30 12:17 | 47.29168 | 4.00561 | 33136 ft | 445 kts | 140° |
| 2026-04-30 12:18 | 47.24322 | 4.06286 | 33112 ft | 447 kts | 141° |
| 2026-04-30 12:18 | 47.19458 | 4.12024 | 33108 ft | 448 kts | 140° |
| 2026-04-30 12:19 | 47.14606 | 4.17748 | 33142 ft | 447 kts | 140° |
| 2026-04-30 12:19 | 47.09761 | 4.23448 | 33142 ft | 446 kts | 141° |
| 2026-04-30 12:20 | 47.04914 | 4.29134 | 33109 ft | 447 kts | 140° |
| 2026-04-30 12:20 | 47.00844 | 4.33903 | 33112 ft | 447 kts | 140° |
| 2026-04-30 12:21 | 46.95985 | 4.39586 | 33107 ft | 447 kts | 141° |
| 2026-04-30 12:21 | 46.91112 | 4.45252 | 33114 ft | 448 kts | 141° |
| 2026-04-30 12:22 | 46.86226 | 4.50916 | 33096 ft | 449 kts | 141° |
| 2026-04-30 12:22 | 46.81321 | 4.56593 | 33101 ft | 450 kts | 141° |
| 2026-04-30 12:23 | 46.76405 | 4.62279 | 33102 ft | 451 kts | 141° |
| 2026-04-30 12:23 | 46.71910 | 4.68653 | 33104 ft | 452 kts | 133° |
| 2026-04-30 12:24 | 46.67559 | 4.75254 | 33104 ft | 452 kts | 133° |
| 2026-04-30 12:24 | 46.63189 | 4.81851 | 33110 ft | 453 kts | 133° |
| 2026-04-30 12:25 | 46.58821 | 4.88441 | 33116 ft | 453 kts | 133° |
| 2026-04-30 12:25 | 46.54453 | 4.95023 | 33138 ft | 452 kts | 133° |
| 2026-04-30 12:26 | 46.50082 | 5.01576 | 33127 ft | 451 kts | 133° |
| 2026-04-30 12:26 | 46.46028 | 5.08496 | 33138 ft | 450 kts | 122° |
| 2026-04-30 12:27 | 46.43520 | 5.16817 | 33137 ft | 457 kts | 104° |
| 2026-04-30 12:27 | 46.41300 | 5.25384 | 33191 ft | 460 kts | 123° |
| 2026-04-30 12:28 | 46.39515 | 5.29215 | 33594 ft | 458 kts | 124° |
| 2026-04-30 12:28 | 46.37734 | 5.33026 | 33969 ft | 456 kts | 124° |
| 2026-04-30 12:28 | 46.35957 | 5.36833 | 34303 ft | 456 kts | 123° |
| 2026-04-30 12:28 | 46.34184 | 5.40628 | 34591 ft | 455 kts | 123° |
| 2026-04-30 12:29 | 46.32405 | 5.44432 | 34874 ft | 455 kts | 123° |
| 2026-04-30 12:29 | 46.30625 | 5.48220 | 35150 ft | 456 kts | 124° |
| 2026-04-30 12:29 | 46.28841 | 5.52003 | 35431 ft | 456 kts | 124° |
| 2026-04-30 12:29 | 46.27051 | 5.55787 | 35707 ft | 455 kts | 124° |
| 2026-04-30 12:30 | 46.25262 | 5.59562 | 35976 ft | 455 kts | 124° |
| 2026-04-30 12:30 | 46.23467 | 5.63346 | 36141 ft | 457 kts | 124° |
| 2026-04-30 12:30 | 46.19869 | 5.70935 | 36166 ft | 459 kts | 124° |
| 2026-04-30 12:31 | 46.16252 | 5.78556 | 36178 ft | 459 kts | 124° |
| 2026-04-30 12:31 | 46.12641 | 5.86148 | 36182 ft | 459 kts | 124° |
| 2026-04-30 12:32 | 46.09023 | 5.93737 | 36187 ft | 459 kts | 124° |
| 2026-04-30 12:32 | 46.05386 | 6.01317 | 36173 ft | 459 kts | 124° |
| 2026-04-30 12:33 | 46.01746 | 6.08876 | 36163 ft | 460 kts | 124° |
| 2026-04-30 12:33 | 45.98101 | 6.16444 | 36146 ft | 461 kts | 124° |
| 2026-04-30 12:34 | 45.94441 | 6.24026 | 36144 ft | 462 kts | 124° |
| 2026-04-30 12:34 | 45.90765 | 6.31620 | 36138 ft | 463 kts | 124° |
| 2026-04-30 12:35 | 45.87081 | 6.39218 | 36144 ft | 464 kts | 124° |
| 2026-04-30 12:35 | 45.83376 | 6.46828 | 36146 ft | 464 kts | 124° |
| 2026-04-30 12:36 | 45.79468 | 6.54118 | 36142 ft | 465 kts | 133° |
| 2026-04-30 12:36 | 45.74996 | 6.60819 | 36144 ft | 466 kts | 134° |
| 2026-04-30 12:37 | 45.70504 | 6.67524 | 36146 ft | 467 kts | 133° |
| 2026-04-30 12:37 | 45.65969 | 6.74270 | 36163 ft | 468 kts | 134° |
| 2026-04-30 12:38 | 45.61453 | 6.80962 | 36171 ft | 469 kts | 134° |
| 2026-04-30 12:38 | 45.56945 | 6.87620 | 36203 ft | 469 kts | 134° |
| 2026-04-30 12:39 | 45.52396 | 6.94334 | 36201 ft | 471 kts | 134° |
| 2026-04-30 12:39 | 45.47837 | 7.01062 | 36247 ft | 472 kts | 134° |
| 2026-04-30 12:40 | 45.43253 | 7.07790 | 36248 ft | 473 kts | 134° |
| 2026-04-30 12:40 | 45.38654 | 7.14519 | 36269 ft | 474 kts | 134° |
| 2026-04-30 12:41 | 45.34051 | 7.21252 | 36249 ft | 474 kts | 135° |
| 2026-04-30 12:41 | 45.29441 | 7.27977 | 36245 ft | 475 kts | 135° |
| 2026-04-30 12:42 | 45.24822 | 7.34704 | 36238 ft | 476 kts | 134° |
| 2026-04-30 12:42 | 45.20192 | 7.41434 | 36240 ft | 477 kts | 135° |
| 2026-04-30 12:43 | 45.15570 | 7.48109 | 36248 ft | 477 kts | 135° |
| 2026-04-30 12:43 | 45.10920 | 7.54809 | 36316 ft | 477 kts | 135° |
| 2026-04-30 12:44 | 45.06270 | 7.61514 | 36324 ft | 477 kts | 135° |
| 2026-04-30 12:44 | 45.01619 | 7.68202 | 36333 ft | 477 kts | 135° |
| 2026-04-30 12:45 | 44.96940 | 7.74900 | 36293 ft | 478 kts | 135° |
| 2026-04-30 12:45 | 44.92263 | 7.81599 | 36279 ft | 479 kts | 135° |
| 2026-04-30 12:46 | 44.87569 | 7.88303 | 36284 ft | 480 kts | 135° |
| 2026-04-30 12:46 | 44.82868 | 7.94986 | 36283 ft | 480 kts | 136° |
| 2026-04-30 12:47 | 44.78153 | 8.01671 | 36295 ft | 481 kts | 136° |
| 2026-04-30 12:47 | 44.73443 | 8.08315 | 36276 ft | 482 kts | 136° |
| 2026-04-30 12:48 | 44.68685 | 8.14987 | 36268 ft | 483 kts | 137° |
| 2026-04-30 12:48 | 44.63664 | 8.21263 | 36271 ft | 483 kts | 141° |
| 2026-04-30 12:49 | 44.58473 | 8.27248 | 36277 ft | 483 kts | 142° |
| 2026-04-30 12:49 | 44.53287 | 8.33262 | 36279 ft | 483 kts | 141° |
| 2026-04-30 12:50 | 44.48161 | 8.39362 | 36265 ft | 484 kts | 141° |
| 2026-04-30 12:50 | 44.43037 | 8.45501 | 36231 ft | 485 kts | 141° |
| 2026-04-30 12:51 | 44.37893 | 8.51634 | 36213 ft | 486 kts | 141° |
| 2026-04-30 12:51 | 44.32721 | 8.57738 | 36203 ft | 486 kts | 141° |
| 2026-04-30 12:52 | 44.27544 | 8.63819 | 36224 ft | 487 kts | 141° |
| 2026-04-30 12:52 | 44.22355 | 8.69906 | 36217 ft | 487 kts | 141° |
| 2026-04-30 12:53 | 44.17165 | 8.75993 | 36227 ft | 488 kts | 141° |
| 2026-04-30 12:53 | 44.12007 | 8.82063 | 36211 ft | 488 kts | 141° |
| 2026-04-30 12:54 | 44.06809 | 8.88149 | 36200 ft | 489 kts | 142° |
| 2026-04-30 12:54 | 44.01589 | 8.94220 | 36197 ft | 490 kts | 142° |
| 2026-04-30 12:55 | 43.96352 | 9.00281 | 36204 ft | 490 kts | 142° |
| 2026-04-30 12:55 | 43.91086 | 9.06386 | 36207 ft | 490 kts | 142° |
| 2026-04-30 12:56 | 43.85848 | 9.12456 | 36199 ft | 491 kts | 142° |
| 2026-04-30 12:56 | 43.80625 | 9.18476 | 36197 ft | 492 kts | 142° |
| 2026-04-30 12:57 | 43.75357 | 9.24535 | 36197 ft | 493 kts | 142° |
| 2026-04-30 12:57 | 43.70084 | 9.30594 | 36204 ft | 493 kts | 142° |
| 2026-04-30 12:58 | 43.64805 | 9.36651 | 36205 ft | 493 kts | 142° |
| 2026-04-30 12:58 | 43.59514 | 9.42695 | 36198 ft | 493 kts | 143° |
| 2026-04-30 12:59 | 43.54218 | 9.48725 | 36212 ft | 494 kts | 143° |
| 2026-04-30 12:59 | 43.49812 | 9.53738 | 36198 ft | 495 kts | 143° |
| 2026-04-30 13:00 | 43.44508 | 9.59772 | 36192 ft | 495 kts | 143° |
| 2026-04-30 13:00 | 43.39183 | 9.65809 | 36175 ft | 496 kts | 143° |
| 2026-04-30 13:01 | 43.33853 | 9.71838 | 36179 ft | 496 kts | 143° |
| 2026-04-30 13:01 | 43.28517 | 9.77847 | 36179 ft | 496 kts | 143° |
| 2026-04-30 13:02 | 43.23169 | 9.83859 | 36206 ft | 496 kts | 143° |
| 2026-04-30 13:02 | 43.17805 | 9.89874 | 36173 ft | 497 kts | 144° |
| 2026-04-30 13:03 | 43.12464 | 9.95844 | 36169 ft | 498 kts | 144° |
| 2026-04-30 13:03 | 43.07091 | 10.01861 | 36167 ft | 499 kts | 143° |
| 2026-04-30 13:04 | 43.01710 | 10.07868 | 36170 ft | 499 kts | 144° |
| 2026-04-30 13:04 | 42.96308 | 10.13841 | 36148 ft | 498 kts | 147° |
| 2026-04-30 13:05 | 42.90316 | 10.18376 | 36151 ft | 492 kts | 158° |
| 2026-04-30 13:06 | 42.81137 | 10.24712 | 36162 ft | 494 kts | 158° |
| 2026-04-30 13:06 | 42.74999 | 10.28932 | 36126 ft | 494 kts | 158° |
| 2026-04-30 13:07 | 42.68852 | 10.33142 | 36137 ft | 495 kts | 158° |
| 2026-04-30 13:07 | 42.62697 | 10.37356 | 36144 ft | 496 kts | 158° |
| 2026-04-30 13:08 | 42.56533 | 10.41589 | 36148 ft | 496 kts | 158° |
| 2026-04-30 13:08 | 42.50370 | 10.45799 | 36138 ft | 496 kts | 158° |
| 2026-04-30 13:09 | 42.44202 | 10.49996 | 36142 ft | 496 kts | 158° |
| 2026-04-30 13:09 | 42.38033 | 10.54187 | 36145 ft | 496 kts | 158° |
| 2026-04-30 13:10 | 42.31866 | 10.58368 | 36158 ft | 496 kts | 158° |
| 2026-04-30 13:10 | 42.25678 | 10.62552 | 36152 ft | 497 kts | 158° |
| 2026-04-30 13:11 | 42.19494 | 10.66728 | 36150 ft | 497 kts | 158° |
| 2026-04-30 13:11 | 42.13301 | 10.70894 | 36148 ft | 497 kts | 158° |
| 2026-04-30 13:12 | 42.07101 | 10.75053 | 36120 ft | 497 kts | 159° |
| 2026-04-30 13:12 | 42.00840 | 10.78953 | 36131 ft | 494 kts | 163° |
| 2026-04-30 13:13 | 41.91237 | 10.83897 | 36141 ft | 492 kts | 165° |
| 2026-04-30 13:14 | 41.81633 | 10.88838 | 36128 ft | 493 kts | 163° |
| 2026-04-30 13:14 | 41.72074 | 10.93973 | 36147 ft | 493 kts | 163° |
| 2026-04-30 13:15 | 41.62536 | 10.99033 | 36127 ft | 493 kts | 164° |
| 2026-04-30 13:16 | 41.56139 | 11.02395 | 36127 ft | 493 kts | 164° |
| 2026-04-30 13:16 | 41.49737 | 11.05743 | 36130 ft | 494 kts | 164° |
| 2026-04-30 13:17 | 41.40142 | 11.10782 | 36124 ft | 494 kts | 164° |
| 2026-04-30 13:18 | 41.30574 | 11.15797 | 36131 ft | 494 kts | 164° |
| 2026-04-30 13:18 | 41.20967 | 11.20819 | 36113 ft | 494 kts | 164° |
| 2026-04-30 13:19 | 41.14562 | 11.24155 | 36120 ft | 494 kts | 164° |
| 2026-04-30 13:19 | 41.08156 | 11.27473 | 36128 ft | 494 kts | 164° |
| 2026-04-30 13:20 | 41.01742 | 11.30788 | 36143 ft | 495 kts | 164° |
| 2026-04-30 13:20 | 40.95332 | 11.34102 | 36127 ft | 495 kts | 164° |
| 2026-04-30 13:21 | 40.88916 | 11.37419 | 36126 ft | 495 kts | 164° |
| 2026-04-30 13:22 | 40.79284 | 11.42378 | 36134 ft | 495 kts | 164° |
| 2026-04-30 13:22 | 40.69635 | 11.47334 | 36113 ft | 496 kts | 164° |
| 2026-04-30 13:23 | 40.60037 | 11.52246 | 36120 ft | 496 kts | 164° |
| 2026-04-30 13:24 | 40.47163 | 11.58802 | 36113 ft | 496 kts | 164° |
| 2026-04-30 13:25 | 40.34285 | 11.65347 | 36116 ft | 496 kts | 164° |
| 2026-04-30 13:26 | 40.18153 | 11.73471 | 36113 ft | 497 kts | 164° |
| 2026-04-30 13:28 | 40.01999 | 11.81580 | 36114 ft | 497 kts | 164° |
| 2026-04-30 13:28 | 39.92314 | 11.86450 | 36121 ft | 497 kts | 164° |
| 2026-04-30 13:29 | 39.79451 | 11.93192 | 36106 ft | 500 kts | 161° |
| 2026-04-30 13:31 | 39.63577 | 12.02307 | 36102 ft | 500 kts | 161° |
| 2026-04-30 13:32 | 39.47596 | 12.11213 | 36101 ft | 500 kts | 161° |
| 2026-04-30 13:32 | 39.41198 | 12.14776 | 35900 ft | 501 kts | 161° |
| 2026-04-30 13:33 | 39.34741 | 12.18377 | 33378 ft | 506 kts | 161° |
| 2026-04-30 13:33 | 39.28375 | 12.21923 | 31271 ft | 492 kts | 161° |
| 2026-04-30 13:34 | 39.25245 | 12.23662 | 30248 ft | 490 kts | 161° |
| 2026-04-30 13:34 | 39.15632 | 12.28944 | 26411 ft | 508 kts | 160° |
| 2026-04-30 13:35 | 39.12357 | 12.30742 | 25069 ft | 513 kts | 160° |
| 2026-04-30 13:35 | 39.05954 | 12.34290 | 22518 ft | 487 kts | 160° |
| 2026-04-30 13:36 | 38.99917 | 12.37634 | 20776 ft | 467 kts | 160° |
| 2026-04-30 13:36 | 38.96963 | 12.39254 | 19909 ft | 467 kts | 160° |
| 2026-04-30 13:36 | 38.90991 | 12.42513 | 18152 ft | 466 kts | 159° |
| 2026-04-30 13:37 | 38.88014 | 12.44140 | 17288 ft | 464 kts | 159° |
| 2026-04-30 13:37 | 38.82173 | 12.47480 | 15783 ft | 455 kts | 156° |
| 2026-04-30 13:38 | 38.76521 | 12.50944 | 14475 ft | 443 kts | 156° |
| 2026-04-30 13:38 | 38.73747 | 12.52656 | 13745 ft | 439 kts | 156° |
| 2026-04-30 13:38 | 38.68297 | 12.55974 | 12296 ft | 428 kts | 156° |
| 2026-04-30 13:39 | 38.63150 | 12.59071 | 11154 ft | 381 kts | 156° |
| 2026-04-30 13:39 | 38.59416 | 12.61303 | 10897 ft | 333 kts | 156° |
| 2026-04-30 13:40 | 38.57372 | 12.62516 | 10617 ft | 316 kts | 156° |
| 2026-04-30 13:40 | 38.55395 | 12.63687 | 10382 ft | 310 kts | 156° |
| 2026-04-30 13:40 | 38.53450 | 12.64842 | 10144 ft | 307 kts | 156° |
| 2026-04-30 13:40 | 38.51517 | 12.65994 | 9966 ft | 306 kts | 156° |
| 2026-04-30 13:41 | 38.49586 | 12.67142 | 9828 ft | 305 kts | 156° |
| 2026-04-30 13:41 | 38.47662 | 12.68283 | 9704 ft | 305 kts | 156° |
| 2026-04-30 13:41 | 38.45741 | 12.69428 | 9563 ft | 304 kts | 156° |
| 2026-04-30 13:41 | 38.43827 | 12.70567 | 9443 ft | 303 kts | 156° |
| 2026-04-30 13:42 | 38.41911 | 12.71704 | 9311 ft | 303 kts | 156° |
| 2026-04-30 13:42 | 38.40005 | 12.72835 | 9148 ft | 302 kts | 156° |
| 2026-04-30 13:42 | 38.36215 | 12.75083 | 8425 ft | 299 kts | 156° |
| 2026-04-30 13:43 | 38.34333 | 12.76197 | 8043 ft | 297 kts | 156° |
| 2026-04-30 13:43 | 38.32480 | 12.77293 | 7664 ft | 288 kts | 156° |
| 2026-04-30 13:43 | 38.30701 | 12.78347 | 7306 ft | 276 kts | 156° |
| 2026-04-30 13:43 | 38.28992 | 12.79358 | 6952 ft | 265 kts | 156° |
| 2026-04-30 13:44 | 38.27354 | 12.80328 | 6626 ft | 255 kts | 156° |
| 2026-04-30 13:44 | 38.25776 | 12.81263 | 6298 ft | 247 kts | 156° |
| 2026-04-30 13:44 | 38.24230 | 12.82171 | 5973 ft | 243 kts | 157° |
| 2026-04-30 13:44 | 38.22693 | 12.83026 | 5642 ft | 238 kts | 158° |
| 2026-04-30 13:45 | 38.19722 | 12.84626 | 5023 ft | 226 kts | 159° |
| 2026-04-30 13:45 | 38.18288 | 12.85393 | 4710 ft | 221 kts | 158° |
| 2026-04-30 13:45 | 38.16886 | 12.86147 | 4395 ft | 216 kts | 157° |
| 2026-04-30 13:46 | 38.15524 | 12.86880 | 4132 ft | 207 kts | 156° |
| 2026-04-30 13:46 | 38.14226 | 12.87579 | 3850 ft | 198 kts | 156° |
| 2026-04-30 13:46 | 38.12985 | 12.88251 | 3581 ft | 190 kts | 154° |
| 2026-04-30 13:46 | 38.11982 | 12.89246 | 3342 ft | 181 kts | 121° |
| 2026-04-30 13:47 | 38.11601 | 12.90662 | 3124 ft | 160 kts | 91° |
| 2026-04-30 13:47 | 38.11788 | 12.91961 | 2879 ft | 144 kts | 62° |
| 2026-04-30 13:47 | 38.12177 | 12.93090 | 2681 ft | 138 kts | 64° |
| 2026-04-30 13:47 | 38.12559 | 12.94214 | 2490 ft | 139 kts | 60° |
| 2026-04-30 13:48 | 38.12936 | 12.95330 | 2299 ft | 137 kts | 63° |
| 2026-04-30 13:48 | 38.13313 | 12.96446 | 2111 ft | 138 kts | 63° |
| 2026-04-30 13:48 | 38.13691 | 12.97563 | 1924 ft | 138 kts | 64° |
| 2026-04-30 13:48 | 38.14061 | 12.98666 | 1743 ft | 134 kts | 60° |
| 2026-04-30 13:49 | 38.14435 | 12.99752 | 1550 ft | 134 kts | 59° |
| 2026-04-30 13:49 | 38.14793 | 13.00849 | 1357 ft | 134 kts | 62° |
| 2026-04-30 13:49 | 38.15138 | 13.01923 | 1190 ft | 131 kts | 63° |
| 2026-04-30 13:49 | 38.15491 | 13.03004 | 1065 ft | 132 kts | 64° |
| 2026-04-30 13:50 | 38.15849 | 13.04093 | 893 ft | 133 kts | 63° |
| 2026-04-30 13:50 | 38.16612 | 13.06233 | 508 ft | 133 kts | 65° |
| 2026-04-30 13:50 | 38.16982 | 13.07293 | 341 ft | 130 kts | 65° |
| 2026-04-30 13:51 | 38.17336 | 13.08344 | 189 ft | 128 kts | 65° |
| 2026-04-30 13:51 | 38.17676 | 13.09391 | 96 ft | 128 kts | 66° |
| 2026-04-30 13:51 | 38.17995 | 13.10326 | 60 ft | 87 kts | 68° |
| 2026-04-30 13:51 | 38.18120 | 13.10699 | 69 ft | 16 kts | 64° |
| 2026-04-30 13:52 | 38.18175 | 13.10685 | 70 ft | 11 kts | 279° |
| 2026-04-30 13:52 | 38.18181 | 13.10595 | 68 ft | 9 kts | 277° |
| 2026-04-30 13:52 | 38.18186 | 13.10540 | 67 ft | 4 kts | 277° |
| 2026-04-30 13:52 | 38.18190 | 13.10504 | 61 ft | 4 kts | 277° |
| 2026-04-30 13:53 | 38.18192 | 13.10484 | 58 ft | 2 kts | 277° |
| 2026-04-30 13:53 | 38.18193 | 13.10476 | 58 ft | 0 kts | 277° |
| 2026-04-30 13:54 | 38.18194 | 13.10461 | 66 ft | 8 kts | 277° |
| 2026-04-30 13:54 | 38.18212 | 13.10394 | 58 ft | 8 kts | 315° |
| 2026-04-30 13:54 | 38.18243 | 13.10371 | 62 ft | 0 kts | 335° |
| 2026-04-30 13:55 | 38.18244 | 13.10371 | 62 ft | 0 kts | 335° |
| 2026-04-30 13:55 | 38.18259 | 13.10362 | 64 ft | 11 kts | 339° |
| 2026-04-30 13:55 | 38.18306 | 13.10408 | 60 ft | 9 kts | 64° |
| 2026-04-30 13:56 | 38.18341 | 13.10479 | 58 ft | 10 kts | 32° |
| 2026-04-30 13:56 | 38.18409 | 13.10511 | 61 ft | 9 kts | 21° |
| 2026-04-30 13:56 | 38.18453 | 13.10559 | 62 ft | 8 kts | 63° |
| 2026-04-30 13:56 | 38.18482 | 13.10585 | 63 ft | 3 kts | 341° |
| 2026-04-30 13:57 | 38.18500 | 13.10574 | 61 ft | 3 kts | 335° |
| 2026-04-30 13:57 | 38.18514 | 13.10566 | 57 ft | 2 kts | 336° |
| 2026-04-30 13:57 | 38.18524 | 13.10561 | 65 ft | 1 kts | 338° |
| 2026-04-30 13:57 | 38.18528 | 13.10559 | 65 ft | 0 kts | 338° |